Painted Post, New York
Current Conditions -  °F | °C
As of 8:53 AM on Wednesday 26 Nov 2014 (Local Time) from KELM Reporting Station
Overcast Overcast  
Wind Chill: -1°   Ceiling: 3100
Heat Index:   Visibility: 10mi
Dew Point: -4°   Wind: 5mph
Humidity: 64%   Direction: 30°NNE
Pressure: 30.16"   Gusts: NA
Location:  42.16°N, 77.09°W
Report Text: KELM 261353Z 03004KT 10SM OVC031 02/M04 A3016 RMK AO2 SLP221 T00171044
Loading
Personal Weather Stations






























Interactive Weather Map New forecast layout! Learn more

10-Day Weather Forecast

Advertisements
Track Severe Weather on mobile